Time;durP1;ratioP1;P1;durP2;ratioP2;P2;SDS_P1;SDS_P2;PMS_P1;PMS_P2;Temp;Humidity;BMP_temperature;BMP_pressure;BME280_temperature;BME280_humidity;BME280_pressure;Samples;Min_cycle;Max_cycle;Signal;HPM_P1;HPM_P2
2023/09/06 00:00:51;;;;;;;8.70;4.30;;;;;;;19.20;46.34;101113.00;5030993;28;20226;-60
2023/09/06 00:03:20;;;;;;;8.43;3.53;;;;;;;19.19;46.31;101117.38;5032212;28;20206;-59
2023/09/06 00:05:48;;;;;;;5.93;3.78;;;;;;;19.20;46.40;101119.09;5028463;28;20230;-60
2023/09/06 00:08:16;;;;;;;8.48;4.07;;;;;;;19.21;46.41;101126.03;5024670;28;20285;-60
2023/09/06 00:10:45;;;;;;;6.93;3.47;;;;;;;19.20;46.40;101133.91;5030785;28;20217;-61
2023/09/06 00:13:14;;;;;;;5.07;4.05;;;;;;;19.16;46.72;101130.53;5025178;28;20209;-60
2023/09/06 00:15:43;;;;;;;5.05;3.97;;;;;;;19.15;46.60;101125.38;5026374;28;20206;-60
2023/09/06 00:18:11;;;;;;;7.28;4.00;;;;;;;19.11;46.68;101126.34;5031739;28;21358;-60
2023/09/06 00:20:40;;;;;;;6.70;3.88;;;;;;;19.08;46.66;101123.84;5031994;28;20594;-60
2023/09/06 00:23:09;;;;;;;8.07;3.90;;;;;;;19.04;46.51;101125.69;5034598;28;20209;-61
2023/09/06 00:25:38;;;;;;;5.97;4.30;;;;;;;18.97;46.71;101116.31;5032687;28;20210;-60
2023/09/06 00:28:07;;;;;;;6.25;4.13;;;;;;;18.97;47.13;101119.78;5031745;28;20257;-61
2023/09/06 00:30:36;;;;;;;5.13;3.78;;;;;;;18.97;46.89;101121.53;5029385;28;20214;-60
2023/09/06 00:33:07;;;;;;;6.18;4.10;;;;;;;18.93;47.28;101119.91;5031818;28;20234;-60
2023/09/06 00:35:35;;;;;;;7.10;4.18;;;;;;;18.91;47.23;101124.31;5023906;28;20238;-60
2023/09/06 00:38:06;;;;;;;7.53;4.40;;;;;;;18.89;47.23;101120.88;5030973;28;20256;-60
2023/09/06 00:40:36;;;;;;;4.90;3.95;;;;;;;18.90;47.75;101127.84;5032081;28;20207;-60
2023/09/06 00:43:05;;;;;;;6.00;3.70;;;;;;;18.89;47.50;101116.53;5031950;28;20202;-66
2023/09/06 00:45:39;;;;;;;4.82;3.88;;;;;;;18.88;47.58;101116.56;5032446;28;20669;-67
2023/09/06 00:48:10;;;;;;;8.52;4.28;;;;;;;18.87;47.48;101117.47;5024783;28;20209;-68
2023/09/06 00:50:42;;;;;;;5.93;4.20;;;;;;;18.87;47.67;101110.50;5024617;28;20380;-68
2023/09/06 00:53:11;;;;;;;6.05;3.88;;;;;;;18.87;47.55;101113.09;5023029;28;20199;-69
2023/09/06 00:55:41;;;;;;;6.13;4.30;;;;;;;18.83;47.35;101114.94;5017731;28;20298;-67
2023/09/06 00:58:09;;;;;;;4.45;3.63;;;;;;;18.83;47.72;101117.56;5022183;28;20207;-68
2023/09/06 01:00:38;;;;;;;6.47;4.60;;;;;;;18.84;47.79;101121.03;5031375;28;20293;-68
2023/09/06 01:03:06;;;;;;;5.10;3.85;;;;;;;18.86;47.93;101119.25;5029254;28;20215;-68
2023/09/06 01:05:40;;;;;;;7.07;4.40;;;;;;;18.86;48.11;101107.94;5031314;28;20261;-68
2023/09/06 01:08:11;;;;;;;7.18;4.90;;;;;;;18.86;47.92;101123.59;5032306;28;20641;-69
2023/09/06 01:10:39;;;;;;;8.93;4.38;;;;;;;18.85;48.04;101119.25;5025129;28;20583;-68
2023/09/06 01:13:07;;;;;;;4.55;3.80;;;;;;;18.81;48.17;101126.31;5031037;28;20553;-67
2023/09/06 01:15:38;;;;;;;5.60;3.90;;;;;;;18.78;48.85;101124.69;5025691;28;20245;-67
2023/09/06 01:18:08;;;;;;;8.88;4.20;;;;;;;18.79;48.83;101129.00;5023712;28;20261;-68
2023/09/06 01:20:42;;;;;;;6.68;4.22;;;;;;;18.73;48.64;101129.16;5030443;28;20685;-68
2023/09/06 01:23:35;;;;;;;6.95;4.45;;;;;;;18.69;48.95;101122.28;5033292;28;20240;-66
2023/09/06 01:26:05;;;;;;;8.48;4.32;;;;;;;18.66;48.95;101131.94;5031057;28;20285;-67
2023/09/06 01:28:34;;;;;;;8.40;4.40;;;;;;;18.61;48.91;101124.25;5030021;28;20209;-66
2023/09/06 01:31:02;;;;;;;7.00;4.30;;;;;;;18.55;49.34;101121.78;5028651;28;20203;-65
2023/09/06 01:33:31;;;;;;;8.63;3.92;;;;;;;18.55;49.62;101129.63;5031293;28;20289;-68
2023/09/06 01:35:59;;;;;;;5.18;3.70;;;;;;;18.55;49.53;101140.06;5030609;28;20260;-67
2023/09/06 01:38:27;;;;;;;7.28;4.35;;;;;;;18.57;49.60;101143.50;5025067;28;20657;-67
2023/09/06 01:40:57;;;;;;;6.10;4.68;;;;;;;18.55;49.59;101134.84;5031357;28;20598;-69
2023/09/06 01:43:25;;;;;;;7.97;4.22;;;;;;;18.50;49.81;101127.16;5031085;28;20211;-67
2023/09/06 01:45:54;;;;;;;7.43;4.25;;;;;;;18.43;50.15;101127.38;5031832;28;20620;-67
2023/09/06 01:48:22;;;;;;;7.93;4.50;;;;;;;18.38;50.20;101131.84;5030969;28;20207;-67
2023/09/06 01:50:50;;;;;;;5.15;4.50;;;;;;;18.33;50.63;101132.81;5031535;28;20287;-69
2023/09/06 01:53:18;;;;;;;5.45;4.35;;;;;;;18.30;50.74;101127.69;5032353;28;20209;-61
2023/09/06 01:55:46;;;;;;;6.10;4.35;;;;;;;18.29;50.72;101139.00;5031593;28;20211;-58
2023/09/06 01:58:15;;;;;;;7.45;4.43;;;;;;;18.28;51.00;101126.88;5030336;28;20289;-60
2023/09/06 02:00:45;;;;;;;6.45;4.50;;;;;;;18.26;51.13;101131.28;5029932;28;20587;-62
2023/09/06 02:03:15;;;;;;;6.45;4.30;;;;;;;18.28;51.28;101134.69;5029467;28;20744;-63
2023/09/06 02:05:43;;;;;;;5.63;4.60;;;;;;;18.27;51.55;101135.59;5027519;28;20220;-61
2023/09/06 02:08:13;;;;;;;6.07;4.40;;;;;;;18.27;52.10;101140.81;5028795;28;20744;-59
2023/09/06 02:10:42;;;;;;;5.72;4.32;;;;;;;18.26;52.38;101135.63;5027603;28;20290;-63
2023/09/06 02:13:09;;;;;;;5.78;4.50;;;;;;;18.24;52.63;101140.88;5027667;28;20211;-59
2023/09/06 02:15:39;;;;;;;6.10;4.50;;;;;;;18.22;53.03;101140.06;5024049;28;20206;-59
2023/09/06 02:18:07;;;;;;;8.30;4.57;;;;;;;18.18;52.70;101135.81;5021510;28;20204;-59
2023/09/06 02:20:35;;;;;;;5.45;4.28;;;;;;;18.16;52.91;101132.41;5029543;28;20246;-61
2023/09/06 02:23:03;;;;;;;7.65;4.63;;;;;;;18.16;53.06;101134.16;5029676;28;20645;-59
2023/09/06 02:25:33;;;;;;;6.72;4.60;;;;;;;18.15;53.20;101140.25;5029362;28;20588;-60
2023/09/06 02:28:04;;;;;;;6.78;5.03;;;;;;;18.12;52.84;101141.22;5020131;28;20233;-59
2023/09/06 02:30:33;;;;;;;7.70;4.72;;;;;;;18.09;52.83;101136.06;5026017;28;20603;-60
2023/09/06 02:33:04;;;;;;;7.55;5.20;;;;;;;18.08;52.89;101131.75;5029984;28;20207;-60
2023/09/06 02:35:40;;;;;;;9.52;4.53;;;;;;;18.02;53.02;101134.50;5029738;28;20217;-59
2023/09/06 02:38:09;;;;;;;8.95;4.75;;;;;;;17.95;53.37;101123.38;5029069;28;20206;-61
2023/09/06 02:40:37;;;;;;;7.35;4.57;;;;;;;17.95;53.47;101127.72;5026520;28;20226;-60
2023/09/06 02:43:05;;;;;;;7.45;4.88;;;;;;;17.93;53.63;101127.78;5029132;28;20195;-58
2023/09/06 02:45:37;;;;;;;6.68;4.22;;;;;;;17.89;53.71;101133.94;5026290;28;20210;-60
2023/09/06 02:48:15;;;;;;;9.60;4.90;;;;;;;17.85;54.04;101140.97;5029277;28;20198;-60
2023/09/06 02:50:44;;;;;;;7.68;4.68;;;;;;;17.84;54.08;101139.25;5029171;28;20205;-59
2023/09/06 02:53:19;;;;;;;6.32;4.30;;;;;;;17.84;54.21;101141.03;5030503;28;20198;-60
2023/09/06 02:55:51;;;;;;;7.68;5.18;;;;;;;17.86;54.28;101149.69;5028018;28;20669;-60
2023/09/06 02:58:23;;;;;;;7.22;4.80;;;;;;;17.88;54.11;101147.88;5028002;28;20218;-61
2023/09/06 03:00:57;;;;;;;7.10;4.95;;;;;;;17.86;54.26;101140.09;5028763;28;20704;-61
2023/09/06 03:03:27;;;;;;;7.45;4.63;;;;;;;17.88;54.65;101149.63;5019291;28;20210;-59
2023/09/06 03:05:57;;;;;;;9.27;4.90;;;;;;;17.86;54.36;101153.13;5027867;28;20214;-60
2023/09/06 03:08:27;;;;;;;9.10;5.40;;;;;;;17.88;54.46;101147.03;5027323;28;20214;-59
2023/09/06 03:10:57;;;;;;;7.15;4.55;;;;;;;17.88;54.42;101141.81;5027158;28;20289;-60
2023/09/06 03:13:25;;;;;;;7.88;5.10;;;;;;;17.86;54.26;101147.94;5026440;28;20996;-59
2023/09/06 03:15:53;;;;;;;9.63;4.45;;;;;;;17.87;54.35;101151.38;5029616;28;20464;-59
2023/09/06 03:18:22;;;;;;;7.10;4.90;;;;;;;17.88;54.55;101154.84;5027816;28;20297;-60
2023/09/06 03:20:55;;;;;;;6.85;4.40;;;;;;;17.89;54.46;101149.56;5022905;28;20218;-61
2023/09/06 03:23:24;;;;;;;5.13;4.20;;;;;;;17.90;54.82;101153.06;5029786;28;20961;-60
2023/09/06 03:25:54;;;;;;;8.32;4.72;;;;;;;17.92;54.38;101161.69;5032932;28;20198;-59
2023/09/06 03:28:25;;;;;;;8.20;4.82;;;;;;;17.89;54.50;101153.94;5030733;28;20207;-59
2023/09/06 03:30:54;;;;;;;11.48;5.07;;;;;;;17.91;54.77;101158.22;5025778;28;20210;-60
2023/09/06 03:33:22;;;;;;;8.38;4.88;;;;;;;17.91;54.49;101163.44;5027800;28;20225;-59
2023/09/06 03:35:50;;;;;;;8.00;4.88;;;;;;;17.93;54.52;101166.00;5028602;28;20256;-60
2023/09/06 03:38:25;;;;;;;7.65;5.20;;;;;;;17.93;54.54;101164.28;5026312;28;20665;-60
2023/09/06 03:40:53;;;;;;;7.93;5.60;;;;;;;17.90;54.59;101160.91;5032477;28;20225;-60
2023/09/06 03:43:30;;;;;;;7.07;4.88;;;;;;;17.86;54.71;101158.34;5033657;28;20225;-59
2023/09/06 03:46:04;;;;;;;9.45;5.60;;;;;;;17.84;54.89;101159.28;5025356;28;20212;-60
2023/09/06 03:48:33;;;;;;;7.25;5.55;;;;;;;17.78;55.06;101159.41;5032257;28;20215;-60
2023/09/06 03:51:02;;;;;;;8.27;5.13;;;;;;;17.72;55.41;101151.72;5032866;28;20207;-60
2023/09/06 03:53:31;;;;;;;8.75;5.18;;;;;;;17.68;55.65;101156.16;5031420;28;20599;-60
2023/09/06 03:56:00;;;;;;;7.40;5.05;;;;;;;17.66;55.69;101157.91;5024180;28;20214;-59
2023/09/06 03:58:29;;;;;;;8.50;5.75;;;;;;;17.65;55.87;101158.81;5031903;28;20254;-61
2023/09/06 04:00:58;;;;;;;8.13;5.30;;;;;;;17.61;56.13;101152.81;5029719;28;20685;-58
2023/09/06 04:03:27;;;;;;;12.00;6.20;;;;;;;17.59;56.03;101157.19;5032179;28;20202;-61
2023/09/06 04:05:57;;;;;;;8.27;5.65;;;;;;;17.61;56.17;101162.38;5029633;28;20203;-60
2023/09/06 04:08:28;;;;;;;9.88;6.00;;;;;;;17.59;56.13;101156.34;5032817;28;20645;-59
2023/09/06 04:10:58;;;;;;;8.55;5.90;;;;;;;17.57;56.09;101166.81;5029159;28;20218;-59
2023/09/06 04:13:26;;;;;;;6.20;5.28;;;;;;;17.55;56.27;101170.34;5033285;28;20230;-67
2023/09/06 04:15:54;;;;;;;7.88;6.00;;;;;;;17.51;56.47;101166.09;5033052;28;20198;-69
2023/09/06 04:18:22;;;;;;;8.77;6.18;;;;;;;17.49;56.33;101160.03;5031879;28;20217;-67
2023/09/06 04:20:50;;;;;;;8.95;6.30;;;;;;;17.51;56.34;101155.66;5031821;28;20218;-67
2023/09/06 04:23:18;;;;;;;9.68;6.43;;;;;;;17.52;56.23;101150.41;5029362;28;20213;-69
2023/09/06 04:25:47;;;;;;;8.82;5.97;;;;;;;17.55;56.31;101152.09;5031526;28;20199;-68
2023/09/06 04:28:20;;;;;;;8.88;5.53;;;;;;;17.59;56.35;101154.59;5031108;28;20649;-69
2023/09/06 04:30:49;;;;;;;11.65;6.55;;;;;;;17.61;56.05;101157.19;5032560;28;20573;-68
2023/09/06 04:33:16;;;;;;;8.30;6.05;;;;;;;17.63;55.79;101160.59;5033064;28;20213;-70
2023/09/06 04:35:46;;;;;;;7.60;5.45;;;;;;;17.63;55.79;101148.41;5031926;28;20226;-65
2023/09/06 04:38:16;;;;;;;8.55;5.95;;;;;;;17.65;55.55;101158.81;5031199;28;20199;-67
2023/09/06 04:40:46;;;;;;;8.73;6.18;;;;;;;17.68;55.79;101160.50;5028419;28;20235;-68
2023/09/06 04:43:16;;;;;;;7.88;5.53;;;;;;;17.68;55.62;101161.34;5032580;28;20199;-67
2023/09/06 04:45:46;;;;;;;9.18;6.07;;;;;;;17.75;55.81;101167.28;5026199;28;20217;-69
2023/09/06 04:48:16;;;;;;;10.90;6.22;;;;;;;17.83;55.25;101168.84;5032315;28;20249;-69
2023/09/06 04:50:46;;;;;;;8.23;5.93;;;;;;;17.95;55.00;101174.66;5028460;28;20202;-69
2023/09/06 04:53:17;;;;;;;11.63;6.05;;;;;;;18.07;54.58;101169.13;5029627;28;20202;-67
2023/09/06 04:55:49;;;;;;;11.35;5.82;;;;;;;18.18;54.21;101169.72;5027208;28;20289;-67
2023/09/06 04:58:19;;;;;;;7.93;5.38;;;;;;;18.30;53.96;101172.06;5029895;28;20203;-69
2023/09/06 05:00:48;;;;;;;13.48;6.22;;;;;;;18.40;53.56;101171.81;5027200;28;20657;-66
2023/09/06 05:03:18;;;;;;;12.18;5.82;;;;;;;18.47;53.37;101170.75;5028869;28;20199;-67
2023/09/06 05:05:48;;;;;;;10.73;6.15;;;;;;;18.55;53.01;101177.47;5035135;28;20227;-67
2023/09/06 05:08:16;;;;;;;13.32;5.88;;;;;;;18.61;52.76;101167.78;5031473;28;20202;-64
2023/09/06 05:10:44;;;;;;;12.80;6.32;;;;;;;18.65;52.44;101172.00;5028229;28;20237;-67
2023/09/06 05:13:12;;;;;;;11.38;5.82;;;;;;;18.67;52.43;101171.09;5035291;28;20684;-64
2023/09/06 05:15:43;;;;;;;7.88;5.82;;;;;;;18.66;52.17;101171.97;5027792;28;20215;-67
2023/09/06 05:18:11;;;;;;;7.35;5.57;;;;;;;18.58;52.16;101171.31;5037992;28;20202;-66
2023/09/06 05:20:40;;;;;;;11.30;6.43;;;;;;;18.49;52.31;101171.56;5035146;28;20736;-66
2023/09/06 05:23:09;;;;;;;18.63;6.30;;;;;;;18.40;52.80;101175.25;5031361;28;20668;-64
2023/09/06 05:25:38;;;;;;;7.72;5.88;;;;;;;18.38;53.04;101171.84;5027537;28;20198;-65
2023/09/06 05:28:08;;;;;;;8.27;5.95;;;;;;;18.33;52.92;101166.72;5027135;28;20202;-66
2023/09/06 05:30:38;;;;;;;8.98;5.90;;;;;;;18.35;53.00;101172.78;5029127;28;20687;-66
2023/09/06 05:33:08;;;;;;;12.38;6.25;;;;;;;18.44;52.97;101173.44;5033684;28;20203;-66
2023/09/06 05:35:36;;;;;;;13.32;6.20;;;;;;;18.43;52.86;101175.19;5032679;28;20254;-66
2023/09/06 05:38:05;;;;;;;16.95;6.53;;;;;;;18.47;52.98;101175.97;5029286;28;20723;-66
2023/09/06 05:40:34;;;;;;;14.30;5.93;;;;;;;18.50;52.77;101179.34;5026369;28;20210;-67
2023/09/06 05:43:03;;;;;;;15.70;6.18;;;;;;;18.55;52.65;101181.84;5030857;28;20543;-66
2023/09/06 05:45:32;;;;;;;10.35;5.93;;;;;;;18.58;52.64;101180.00;5021540;28;20592;-64
2023/09/06 05:48:00;;;;;;;11.63;6.28;;;;;;;18.65;52.56;101178.09;5023725;28;20207;-65
2023/09/06 05:50:30;;;;;;;9.48;6.45;;;;;;;18.70;52.57;101191.88;5024276;28;20202;-65
2023/09/06 05:52:58;;;;;;;12.60;6.47;;;;;;;18.79;52.57;101185.59;5024438;28;20583;-67
2023/09/06 05:55:26;;;;;;;10.90;6.28;;;;;;;18.87;52.59;101185.38;5030189;28;20207;-65
2023/09/06 05:57:54;;;;;;;8.80;5.80;;;;;;;18.91;52.29;101190.47;5026539;28;20210;-66
2023/09/06 06:00:22;;;;;;;12.48;6.05;;;;;;;18.99;52.13;101187.63;5030267;28;20673;-66
2023/09/06 06:02:50;;;;;;;11.35;6.30;;;;;;;19.02;51.95;101185.78;5031204;28;20585;-65
2023/09/06 06:05:19;;;;;;;12.43;5.50;;;;;;;19.07;51.72;101185.66;5028322;28;20365;-64
2023/09/06 06:07:48;;;;;;;14.15;6.00;;;;;;;19.12;51.45;101183.78;5032353;28;20554;-65
2023/09/06 06:10:16;;;;;;;11.50;5.95;;;;;;;19.18;51.61;101187.97;5022696;28;20210;-66
2023/09/06 06:12:44;;;;;;;17.95;6.78;;;;;;;19.23;51.45;101186.94;5026940;28;20230;-65
2023/09/06 06:15:14;;;;;;;12.02;5.45;;;;;;;19.29;51.15;101192.00;5028227;28;20206;-68
2023/09/06 06:17:43;;;;;;;15.55;5.88;;;;;;;19.40;50.76;101191.66;5022368;28;20226;-65
2023/09/06 06:20:13;;;;;;;7.72;5.32;;;;;;;19.57;50.55;101187.69;5026180;28;20273;-65
2023/09/06 06:22:42;;;;;;;15.15;5.97;;;;;;;19.89;49.59;101184.13;5030958;28;20222;-65
2023/09/06 06:25:12;;;;;;;14.57;5.70;;;;;;;20.37;48.81;101188.63;5030905;28;20214;-66
2023/09/06 06:27:40;;;;;;;15.30;5.90;;;;;;;20.84;47.56;101189.63;5030844;28;20198;-66
2023/09/06 06:30:11;;;;;;;13.38;5.30;;;;;;;21.33;46.70;101189.59;5026177;28;20238;-66
2023/09/06 06:32:39;;;;;;;13.90;5.70;;;;;;;21.78;45.78;101184.34;5027283;28;20208;-61
2023/09/06 06:35:11;;;;;;;13.00;5.53;;;;;;;22.19;44.61;101180.06;5019637;28;20206;-59
2023/09/06 06:37:39;;;;;;;13.57;5.72;;;;;;;22.62;43.42;101186.09;5025882;28;20242;-60
2023/09/06 06:40:09;;;;;;;14.07;5.68;;;;;;;22.97;42.78;101194.22;5028825;28;20293;-60
2023/09/06 06:42:39;;;;;;;14.57;5.93;;;;;;;23.32;42.19;101194.41;5029552;28;20210;-60
2023/09/06 06:45:09;;;;;;;13.48;5.95;;;;;;;23.72;41.67;101192.56;5028714;28;20198;-65
2023/09/06 06:47:37;;;;;;;17.23;5.40;;;;;;;24.18;40.65;101190.31;5026763;28;20688;-67
2023/09/06 06:50:06;;;;;;;12.85;5.57;;;;;;;24.66;39.63;101183.50;5030962;28;20641;-67
2023/09/06 06:52:36;;;;;;;15.32;5.75;;;;;;;25.28;38.57;101189.84;5027584;28;20277;-68
2023/09/06 06:55:05;;;;;;;14.13;6.43;;;;;;;26.06;37.26;101187.25;5028133;28;20210;-65
2023/09/06 06:57:35;;;;;;;13.45;5.40;;;;;;;26.97;35.60;101187.06;5027695;28;20650;-65
2023/09/06 07:00:06;;;;;;;14.18;5.45;;;;;;;28.27;33.67;101185.75;5030786;28;20638;-65
2023/09/06 07:02:34;;;;;;;16.63;5.07;;;;;;;29.86;31.30;101189.59;5026787;28;20218;-66
2023/09/06 07:05:03;;;;;;;9.07;4.97;;;;;;;31.48;28.81;101187.66;5033945;28;20217;-67
2023/09/06 07:07:31;;;;;;;14.35;5.07;;;;;;;33.24;26.63;101178.97;5028566;28;20210;-66
2023/09/06 07:09:59;;;;;;;9.75;4.50;;;;;;;35.40;23.31;101188.19;5034661;28;20229;-62
2023/09/06 07:12:27;;;;;;;9.30;4.35;;;;;;;37.22;20.56;101186.50;5034392;28;20657;-64
2023/09/06 07:14:55;;;;;;;8.82;4.22;;;;;;;38.62;18.38;101182.84;5034203;28;20218;-65
2023/09/06 07:17:24;;;;;;;10.13;4.07;;;;;;;39.76;17.78;101186.81;5031655;28;20723;-61
2023/09/06 07:19:53;;;;;;;8.32;4.65;;;;;;;40.79;15.86;101179.91;5027887;28;20288;-64
2023/09/06 07:22:21;;;;;;;9.70;4.18;;;;;;;41.65;15.38;101186.34;5033632;28;20226;-62
2023/09/06 07:24:49;;;;;;;6.32;3.65;;;;;;;42.60;14.54;101186.84;5030633;28;20201;-62
2023/09/06 07:27:17;;;;;;;9.25;4.00;;;;;;;42.75;14.10;101186.72;5024172;28;20199;-61
2023/09/06 07:29:45;;;;;;;6.15;3.75;;;;;;;42.90;14.19;101190.13;5024602;28;20261;-60
2023/09/06 07:32:13;;;;;;;9.65;4.03;;;;;;;42.99;16.14;101194.34;5022907;28;20618;-66
2023/09/06 07:34:42;;;;;;;6.50;3.78;;;;;;;43.14;15.36;101188.78;5021622;28;20259;-66
2023/09/06 07:37:10;;;;;;;5.97;3.65;;;;;;;42.75;13.99;101192.97;5028442;28;20230;-68
2023/09/06 07:39:38;;;;;;;3.78;3.42;;;;;;;42.70;14.63;101188.16;5025388;28;20202;-67
2023/09/06 07:42:06;;;;;;;10.65;3.58;;;;;;;43.14;14.17;101191.50;5023975;28;20355;-67
2023/09/06 07:44:33;;;;;;;3.83;3.45;;;;;;;43.54;13.49;101194.31;5025739;28;20673;-66
2023/09/06 07:47:02;;;;;;;6.25;3.25;;;;;;;43.71;13.28;101198.31;5025928;28;20232;-69
2023/09/06 07:49:31;;;;;;;4.85;3.70;;;;;;;43.33;12.95;101200.72;5021607;28;20193;-72
2023/09/06 07:52:04;;;;;;;9.40;3.80;;;;;;;43.28;13.07;101198.63;5024151;28;20705;-69
2023/09/06 07:54:33;;;;;;;5.47;3.45;;;;;;;43.51;12.99;101201.00;5025276;28;20205;-67
2023/09/06 07:57:01;;;;;;;5.63;3.25;;;;;;;43.80;13.05;101191.63;5023542;28;20725;-69
2023/09/06 07:59:29;;;;;;;3.65;3.33;;;;;;;43.99;11.89;101203.53;5028260;28;20626;-69
2023/09/06 08:01:57;;;;;;;6.45;3.40;;;;;;;43.83;12.51;101193.91;5031550;28;20198;-70
2023/09/06 08:04:25;;;;;;;4.85;2.95;;;;;;;43.98;12.11;101199.16;5030594;28;20210;-69
2023/09/06 08:06:55;;;;;;;4.78;3.13;;;;;;;43.86;12.54;101198.09;5031810;28;20244;-72
2023/09/06 08:09:25;;;;;;;4.07;3.35;;;;;;;43.97;12.38;101199.34;5028853;28;20206;-69
2023/09/06 08:11:53;;;;;;;4.78;3.45;;;;;;;44.24;11.92;101197.47;5026594;28;20209;-70
2023/09/06 08:14:21;;;;;;;4.88;3.40;;;;;;;44.34;12.15;101197.91;5031841;28;20202;-69
2023/09/06 08:16:49;;;;;;;6.35;3.50;;;;;;;44.40;12.11;101188.88;5022359;28;20222;-69
2023/09/06 08:19:17;;;;;;;5.93;3.25;;;;;;;44.64;11.91;101184.63;5031995;28;20238;-70
2023/09/06 08:21:45;;;;;;;3.92;3.17;;;;;;;44.93;11.98;101188.72;5031092;28;20656;-70
2023/09/06 08:24:13;;;;;;;4.72;3.20;;;;;;;45.41;11.30;101201.84;5027460;28;20234;-70
2023/09/06 08:26:43;;;;;;;4.40;2.97;;;;;;;45.86;11.03;101199.03;5010378;28;20981;-71
2023/09/06 08:29:11;;;;;;;4.20;2.95;;;;;;;45.63;10.89;101194.19;5007800;28;20555;-68
2023/09/06 08:31:39;;;;;;;6.03;3.40;;;;;;;45.55;10.98;101202.59;5009192;28;20206;-69
2023/09/06 08:34:08;;;;;;;4.00;3.40;;;;;;;45.47;11.24;101190.09;5019790;28;20885;-69
2023/09/06 08:36:36;;;;;;;4.35;3.40;;;;;;;45.60;11.38;101200.06;5017563;28;20571;-68
2023/09/06 08:39:06;;;;;;;5.32;3.40;;;;;;;45.42;11.00;101197.22;5019799;28;20649;-66
2023/09/06 08:41:34;;;;;;;4.25;3.38;;;;;;;45.25;11.27;101205.06;5023734;28;20230;-68
2023/09/06 08:44:06;;;;;;;3.03;2.72;;;;;;;44.76;11.35;101195.69;5022150;28;20218;-67
2023/09/06 08:46:42;;;;;;;6.57;3.63;;;;;;;43.94;11.73;101205.22;5020164;28;20245;-68
2023/09/06 08:49:12;;;;;;;4.72;2.90;;;;;;;43.11;12.22;101198.16;5021849;28;20503;-67
2023/09/06 08:51:42;;;;;;;4.05;3.00;;;;;;;42.80;12.80;101195.09;5023040;28;20221;-69
2023/09/06 08:54:12;;;;;;;4.75;3.60;;;;;;;42.33;13.02;101191.28;5024358;28;20626;-62
2023/09/06 08:56:40;;;;;;;3.92;3.25;;;;;;;41.74;13.64;101197.84;5020729;28;20213;-63
2023/09/06 08:59:11;;;;;;;4.63;3.05;;;;;;;40.83;13.91;101196.59;5022722;28;20285;-63
2023/09/06 09:01:39;;;;;;;3.90;2.88;;;;;;;39.86;14.93;101191.97;5022265;28;20198;-62
2023/09/06 09:04:09;;;;;;;3.70;2.92;;;;;;;38.70;15.82;101206.22;5018913;28;20272;-64
2023/09/06 09:06:42;;;;;;;3.55;2.67;;;;;;;37.87;16.53;101199.22;5020765;28;20206;-61
2023/09/06 09:09:16;;;;;;;5.70;3.28;;;;;;;36.83;17.07;101201.47;5020320;28;20289;-62
2023/09/06 09:11:45;;;;;;;4.63;3.15;;;;;;;35.84;18.48;101202.56;5022000;28;20719;-63
2023/09/06 09:14:22;;;;;;;10.70;3.00;;;;;;;35.07;19.19;101199.38;5022296;28;20641;-63
2023/09/06 09:16:57;;;;;;;4.40;2.83;;;;;;;34.43;20.41;101200.16;5022098;28;20212;-62
2023/09/06 09:19:26;;;;;;;3.50;3.20;;;;;;;33.97;20.42;101199.03;5020941;28;20245;-65
2023/09/06 09:21:56;;;;;;;4.45;2.60;;;;;;;33.77;20.87;101200.91;5019955;28;20207;-63
2023/09/06 09:24:28;;;;;;;2.58;2.38;;;;;;;33.34;21.79;101206.56;5020259;28;20209;-62
2023/09/06 09:26:57;;;;;;;4.30;2.58;;;;;;;32.97;23.05;101208.97;5024549;28;20194;-62
2023/09/06 09:29:28;;;;;;;5.80;2.35;;;;;;;32.65;23.08;101210.75;5021936;28;20731;-62
2023/09/06 09:32:02;;;;;;;3.65;2.22;;;;;;;32.41;23.20;101210.22;5021748;28;20253;-62
2023/09/06 09:34:31;;;;;;;3.78;2.80;;;;;;;32.24;22.71;101208.94;5020766;28;20202;-65
2023/09/06 09:36:59;;;;;;;4.38;3.00;;;;;;;31.99;23.62;101210.16;5022882;28;20222;-62
2023/09/06 09:39:28;;;;;;;6.60;3.45;;;;;;;31.60;24.89;101206.28;5023254;28;20206;-63
2023/09/06 09:41:59;;;;;;;10.00;2.80;;;;;;;31.28;25.57;101213.19;5022906;28;20202;-62
2023/09/06 09:44:29;;;;;;;5.57;4.30;;;;;;;30.99;25.47;101214.69;5019876;28;20211;-63
2023/09/06 09:46:58;;;;;;;5.40;3.25;;;;;;;30.80;25.56;101210.78;5022219;28;20246;-65
2023/09/06 09:49:36;;;;;;;4.07;2.35;;;;;;;30.58;25.91;101217.88;5021673;28;20210;-65
2023/09/06 09:52:06;;;;;;;4.68;2.80;;;;;;;30.33;26.21;101215.28;5021180;28;20808;-65
2023/09/06 09:54:37;;;;;;;5.53;3.03;;;;;;;30.31;26.19;101211.06;5021012;28;20202;-64
2023/09/06 09:57:06;;;;;;;3.22;2.30;;;;;;;30.42;26.13;101212.91;5021348;28;20201;-64
2023/09/06 09:59:37;;;;;;;3.65;2.75;;;;;;;30.44;26.81;101211.81;5021020;28;20203;-65
2023/09/06 10:02:06;;;;;;;5.50;3.22;;;;;;;30.32;26.40;101208.28;5019321;28;20203;-64
2023/09/06 10:04:37;;;;;;;5.40;2.75;;;;;;;30.14;27.23;101214.94;5020286;28;20241;-66
2023/09/06 10:07:09;;;;;;;4.28;2.25;;;;;;;30.20;26.60;101209.22;5021671;28;20214;-70
2023/09/06 10:09:39;;;;;;;4.05;2.70;;;;;;;30.41;25.89;101208.53;5022186;28;20207;-67
2023/09/06 10:12:10;;;;;;;5.63;3.38;;;;;;;30.78;25.53;101201.22;5022484;28;20209;-66
2023/09/06 10:14:41;;;;;;;6.65;3.08;;;;;;;31.27;25.32;101195.53;5021404;28;20284;-72
2023/09/06 10:17:11;;;;;;;4.93;3.20;;;;;;;31.68;24.99;101206.50;5020385;28;20230;-67
2023/09/06 10:19:41;;;;;;;4.47;3.40;;;;;;;32.13;24.53;101203.66;5020029;28;20257;-67
2023/09/06 10:22:22;;;;;;;3.58;3.28;;;;;;;32.52;22.64;101204.81;5024705;28;20804;-69
2023/09/06 10:24:52;;;;;;;3.42;2.95;;;;;;;33.00;22.03;101209.56;5029683;28;20214;-68
2023/09/06 10:27:20;;;;;;;6.25;2.70;;;;;;;33.65;21.56;101199.31;5028388;28;20203;-69
2023/09/06 10:29:53;;;;;;;3.33;2.80;;;;;;;34.23;21.30;101198.50;5029314;28;20207;-69
2023/09/06 10:32:41;;;;;;;3.88;2.65;;;;;;;34.49;21.23;101191.53;5021179;28;20206;-67
2023/09/06 10:35:21;;;;;;;5.22;2.90;;;;;;;34.57;21.38;101193.50;5021837;28;20217;-67
2023/09/06 10:38:06;;;;;;;5.03;2.83;;;;;;;34.44;21.27;101199.16;5026180;28;20206;-68
2023/09/06 10:41:10;;;;;;;4.53;2.75;;;;;;;34.24;21.97;101194.81;5023165;28;20226;-68
2023/09/06 10:43:55;;;;;;;6.10;3.53;;;;;;;34.13;22.19;101201.16;5019582;28;20242;-68
2023/09/06 10:46:29;;;;;;;4.00;2.95;;;;;;;34.00;21.86;101195.28;5028001;28;20317;-68
2023/09/06 10:49:20;;;;;;;5.43;3.33;;;;;;;33.97;22.37;101199.03;5030272;28;20206;-68
2023/09/06 10:51:57;;;;;;;3.20;2.63;;;;;;;34.08;21.57;101193.56;5023676;28;20602;-68
2023/09/06 10:54:25;;;;;;;3.70;2.80;;;;;;;34.14;22.05;101192.19;5021952;28;20706;-66
2023/09/06 10:56:58;;;;;;;4.00;3.13;;;;;;;34.06;22.46;101192.03;5019866;28;20252;-69
2023/09/06 10:59:27;;;;;;;4.18;3.20;;;;;;;33.77;21.87;101189.34;5019011;28;20207;-68
2023/09/06 11:02:25;;;;;;;4.10;2.72;;;;;;;33.40;22.65;101200.69;5021524;28;20351;-67
2023/09/06 11:05:08;;;;;;;5.70;3.10;;;;;;;33.18;22.83;101191.91;5020744;28;20221;-68
2023/09/06 11:07:41;;;;;;;2.80;2.58;;;;;;;33.01;22.72;101189.88;5021226;28;20209;-66
2023/09/06 11:10:22;;;;;;;3.63;2.75;;;;;;;32.89;23.57;101188.25;5021795;28;20207;-65
2023/09/06 11:12:53;;;;;;;4.30;3.22;;;;;;;32.80;23.55;101181.03;5018746;28;20203;-68
2023/09/06 11:15:22;;;;;;;3.97;3.13;;;;;;;32.69;23.21;101179.31;5022952;28;20250;-68
2023/09/06 11:17:52;;;;;;;24.98;8.00;;;;;;;32.39;23.79;101178.28;5021973;28;21000;-67
2023/09/06 11:20:22;;;;;;;35.33;9.27;;;;;;;32.17;24.23;101179.25;5020736;28;20307;-71
2023/09/06 11:22:53;;;;;;;5.82;3.30;;;;;;;31.91;24.58;101172.63;5019147;28;20576;-67
2023/09/06 11:25:22;;;;;;;22.20;5.65;;;;;;;31.56;24.79;101173.72;5017691;28;20229;-68
2023/09/06 11:27:51;;;;;;;5.72;3.05;;;;;;;31.15;25.58;101177.03;5025822;28;20214;-70
2023/09/06 11:30:21;;;;;;;11.60;4.80;;;;;;;30.67;26.05;101171.91;5027862;28;20210;-68
2023/09/06 11:32:52;;;;;;;7.90;3.45;;;;;;;30.38;26.89;101174.19;5021831;28;20209;-70
2023/09/06 11:35:26;;;;;;;7.80;4.03;;;;;;;30.17;27.26;101182.00;5027832;28;20657;-69
2023/09/06 11:37:55;;;;;;;5.43;3.13;;;;;;;30.00;27.67;101175.28;5029357;28;20260;-69